Time;durP1;ratioP1;P1;durP2;ratioP2;P2;SDS_P1;SDS_P2;PMS_P1;PMS_P2;Temp;Humidity;BMP_temperature;BMP_pressure;BME280_temperature;BME280_humidity;BME280_pressure;Samples;Min_cycle;Max_cycle;Signal;HPM_P1;HPM_P2
2022/08/10 00:00:56;;;;;;;2.03;1.80;;;;;;;18.66;77.55;102599.53;5062361;28;20460;-62
2022/08/10 00:03:21;;;;;;;2.38;1.58;;;;;;;18.57;78.34;102604.53;5066074;28;20350;-62
2022/08/10 00:05:47;;;;;;;3.35;1.60;;;;;;;18.50;78.27;102600.84;5063602;28;20016;-62
2022/08/10 00:08:12;;;;;;;2.40;1.35;;;;;;;18.47;78.60;102601.66;5064606;28;20031;-62
2022/08/10 00:10:38;;;;;;;3.97;1.90;;;;;;;18.43;79.07;102602.44;5064453;28;20078;-61
2022/08/10 00:13:03;;;;;;;1.77;1.67;;;;;;;18.39;79.46;102597.94;5066198;28;20021;-62
2022/08/10 00:15:29;;;;;;;2.30;1.55;;;;;;;18.38;79.63;102600.53;5063512;28;20086;-62
2022/08/10 00:17:55;;;;;;;1.92;1.70;;;;;;;18.37;79.58;102599.63;5059967;28;20416;-62
2022/08/10 00:20:20;;;;;;;1.95;1.85;;;;;;;18.35;79.78;102590.81;5064669;28;20062;-62
2022/08/10 00:22:46;;;;;;;2.17;1.70;;;;;;;18.33;79.63;102598.66;5060126;28;20021;-62
2022/08/10 00:25:11;;;;;;;1.92;1.70;;;;;;;18.31;79.91;102594.22;5063002;28;20388;-62
2022/08/10 00:27:37;;;;;;;2.58;1.42;;;;;;;18.27;80.18;102592.34;5062064;28;20023;-62
2022/08/10 00:30:04;;;;;;;1.85;1.40;;;;;;;18.24;80.27;102590.53;5062633;28;20040;-62
2022/08/10 00:32:29;;;;;;;2.40;1.90;;;;;;;18.21;80.32;102586.09;5067368;28;20017;-62
2022/08/10 00:34:54;;;;;;;4.00;2.20;;;;;;;18.19;80.02;102579.91;5067552;28;20195;-62
2022/08/10 00:37:20;;;;;;;3.90;1.90;;;;;;;18.18;80.14;102577.25;5068156;28;20055;-62
2022/08/10 00:39:45;;;;;;;1.70;1.60;;;;;;;18.16;79.92;102574.59;5070321;28;20039;-62
2022/08/10 00:42:14;;;;;;;4.00;1.73;;;;;;;18.11;80.59;102581.41;5068971;28;20027;-62
2022/08/10 00:44:45;;;;;;;2.20;2.00;;;;;;;18.07;80.87;102579.53;5065413;28;20019;-62
2022/08/10 00:47:12;;;;;;;1.90;1.70;;;;;;;18.02;81.34;102581.13;5066649;28;20024;-62
2022/08/10 00:49:38;;;;;;;2.22;1.98;;;;;;;17.98;81.27;102570.56;5068147;28;20476;-62
2022/08/10 00:52:03;;;;;;;1.90;1.80;;;;;;;17.96;81.66;102571.34;5062558;28;20017;-62
2022/08/10 00:54:29;;;;;;;2.47;1.90;;;;;;;17.95;81.23;102575.69;5058231;28;20027;-62
2022/08/10 00:56:55;;;;;;;2.08;1.88;;;;;;;17.95;81.55;102573.06;5067981;28;20024;-62
2022/08/10 00:59:20;;;;;;;2.00;1.80;;;;;;;17.93;81.64;102573.91;5061856;28;20495;-62
2022/08/10 01:01:46;;;;;;;2.15;2.03;;;;;;;17.90;82.16;102572.06;5064029;28;20403;-62
2022/08/10 01:04:11;;;;;;;2.40;2.20;;;;;;;17.85;82.08;102576.28;5062468;28;20013;-61
2022/08/10 01:06:54;;;;;;;3.45;2.40;;;;;;;17.80;82.70;102573.53;5065343;28;20061;-62
2022/08/10 01:09:30;;;;;;;2.63;2.28;;;;;;;17.76;82.71;102567.31;5063604;28;20119;-61
2022/08/10 01:12:11;;;;;;;5.43;2.35;;;;;;;17.75;82.46;102570.75;5065778;28;20468;-62
2022/08/10 01:14:47;;;;;;;2.55;2.35;;;;;;;17.73;82.86;102574.19;5063580;28;20075;-62
2022/08/10 01:17:51;;;;;;;2.30;2.20;;;;;;;17.65;83.38;102568.72;5061974;28;20020;-62
2022/08/10 01:20:34;;;;;;;3.42;2.72;;;;;;;17.62;83.70;102566.91;5061972;28;20149;-62
2022/08/10 01:23:29;;;;;;;2.60;1.95;;;;;;;17.59;83.73;102560.69;5062444;28;20032;-62
2022/08/10 01:26:13;;;;;;;2.50;2.30;;;;;;;17.54;84.18;102564.91;5059881;28;20071;-62
2022/08/10 01:28:59;;;;;;;3.08;2.42;;;;;;;17.46;84.26;102560.31;5062407;28;20016;-62
2022/08/10 01:31:29;;;;;;;2.92;2.58;;;;;;;17.46;84.48;102565.56;5062270;28;20265;-62
2022/08/10 01:34:02;;;;;;;3.25;2.80;;;;;;;17.43;84.41;102565.44;5066728;28;20367;-62
2022/08/10 01:36:45;;;;;;;2.78;2.53;;;;;;;17.39;84.90;102566.22;5066325;28;20112;-61
2022/08/10 01:39:18;;;;;;;2.72;2.53;;;;;;;17.36;85.01;102571.38;5060829;28;20024;-62
2022/08/10 01:41:47;;;;;;;3.30;2.50;;;;;;;17.32;85.32;102566.84;5060822;28;20052;-62
2022/08/10 01:44:27;;;;;;;3.67;2.63;;;;;;;17.28;86.02;102569.38;5063162;28;20025;-62
2022/08/10 01:48:27;;;;;;;3.58;2.83;;;;;;;17.25;86.28;102566.66;5065755;28;20032;-62
2022/08/10 01:49:46;;;;;;;2.85;2.22;;;;;;;17.23;86.37;102563.13;5062016;28;20043;-62
2022/08/10 01:52:14;;;;;;;3.70;3.08;;;;;;;17.21;86.31;102561.28;5057222;28;20094;-62
2022/08/10 01:54:41;;;;;;;2.95;2.75;;;;;;;17.15;87.14;102557.63;5059608;28;20052;-62
2022/08/10 01:57:10;;;;;;;2.88;2.20;;;;;;;17.11;87.01;102552.22;5058400;28;20017;-62
2022/08/10 01:59:37;;;;;;;3.83;3.00;;;;;;;17.08;87.10;102557.34;5065721;28;20031;-62
2022/08/10 02:02:07;;;;;;;2.83;2.63;;;;;;;17.03;87.58;102559.81;5064862;28;20021;-62
2022/08/10 02:04:36;;;;;;;3.45;2.50;;;;;;;16.99;87.75;102571.91;5062998;28;20020;-62
2022/08/10 02:07:03;;;;;;;3.25;2.95;;;;;;;16.93;88.10;102569.09;5065799;28;20060;-62
2022/08/10 02:09:34;;;;;;;2.40;2.30;;;;;;;16.89;88.39;102568.09;5063795;28;20035;-62
2022/08/10 02:12:02;;;;;;;3.28;2.97;;;;;;;16.85;88.86;102561.00;5066595;28;20078;-62
2022/08/10 02:14:50;;;;;;;3.17;2.58;;;;;;;16.80;89.00;102562.56;5066780;28;20028;-62
2022/08/10 02:17:23;;;;;;;2.97;2.78;;;;;;;16.77;89.24;102558.09;5064512;28;20171;-62
2022/08/10 02:19:51;;;;;;;3.55;2.78;;;;;;;16.75;89.38;102554.53;5060585;28;20021;-62
2022/08/10 02:22:19;;;;;;;2.80;2.60;;;;;;;16.74;89.48;102558.03;5062718;28;20047;-62
2022/08/10 02:24:46;;;;;;;3.42;2.65;;;;;;;16.75;89.39;102557.16;5059210;28;20059;-62
2022/08/10 02:27:13;;;;;;;3.45;2.80;;;;;;;16.73;89.89;102550.97;5064042;28;20020;-62
2022/08/10 02:29:40;;;;;;;3.80;2.42;;;;;;;16.72;89.38;102549.22;5060753;28;20021;-62
2022/08/10 02:32:07;;;;;;;3.10;2.88;;;;;;;16.71;89.65;102562.25;5066238;28;20027;-61
2022/08/10 02:34:36;;;;;;;3.15;2.90;;;;;;;16.66;90.10;102562.97;5058390;28;20029;-62
2022/08/10 02:37:03;;;;;;;3.40;2.95;;;;;;;16.65;nan;102563.84;5056393;28;20047;-62
2022/08/10 02:39:30;;;;;;;3.78;3.22;;;;;;;16.63;90.29;102564.59;5058227;28;20024;-62
2022/08/10 02:42:06;;;;;;;3.33;2.97;;;;;;;16.61;90.25;102564.56;5061628;28;20028;-62
2022/08/10 02:44:45;;;;;;;4.15;3.00;;;;;;;16.55;91.03;102557.38;5063246;28;20104;-62
2022/08/10 02:47:20;;;;;;;5.68;3.00;;;;;;;16.55;91.28;102559.09;5057033;28;20013;-61
2022/08/10 02:49:54;;;;;;;3.30;3.00;;;;;;;16.53;91.39;102561.66;5059918;28;20033;-62
2022/08/10 02:52:30;;;;;;;3.60;3.20;;;;;;;16.49;91.98;102557.19;5056205;28;20066;-62
2022/08/10 02:55:16;;;;;;;3.60;3.30;;;;;;;16.47;91.56;102553.63;5059358;28;20025;-62
2022/08/10 02:57:47;;;;;;;3.40;3.05;;;;;;;16.44;91.67;102538.69;5060547;28;20031;-62
2022/08/10 03:00:13;;;;;;;3.53;3.22;;;;;;;16.43;91.70;102536.91;5064084;28;20017;-62
2022/08/10 03:02:42;;;;;;;3.17;2.78;;;;;;;16.40;92.17;102543.78;5063262;28;20574;-62
2022/08/10 03:05:12;;;;;;;4.20;3.30;;;;;;;16.35;92.61;102543.63;5065218;28;20021;-61
2022/08/10 03:08:03;;;;;;;3.35;3.05;;;;;;;16.31;92.58;102539.09;5065409;28;20025;-62
2022/08/10 03:10:32;;;;;;;3.63;3.33;;;;;;;16.29;92.71;102533.81;5061439;28;20499;-61
2022/08/10 03:13:04;;;;;;;3.80;3.50;;;;;;;16.27;92.90;102525.03;5064965;28;20484;-62
2022/08/10 03:15:32;;;;;;;5.00;3.95;;;;;;;16.24;93.19;102535.41;5065096;28;20099;-62
2022/08/10 03:17:58;;;;;;;3.67;3.30;;;;;;;16.23;93.13;102528.38;5066977;28;20021;-61
2022/08/10 03:20:25;;;;;;;3.90;3.60;;;;;;;16.22;93.08;102530.94;5066182;28;20221;-62
2022/08/10 03:22:53;;;;;;;3.60;3.30;;;;;;;16.15;93.67;102522.88;5063651;28;20048;-61
2022/08/10 03:25:20;;;;;;;4.22;3.83;;;;;;;16.14;93.56;102528.03;5067097;28;20020;-61
2022/08/10 03:27:48;;;;;;;3.60;3.40;;;;;;;16.09;94.41;102530.50;5064491;28;20495;-62
2022/08/10 03:30:14;;;;;;;4.45;3.60;;;;;;;16.07;94.08;102524.31;5067065;28;20021;-61
2022/08/10 03:32:41;;;;;;;4.15;3.60;;;;;;;16.04;94.25;102526.84;5067687;28;20027;-61
2022/08/10 03:35:08;;;;;;;4.07;3.33;;;;;;;16.03;94.60;102525.06;5063985;28;20028;-62
2022/08/10 03:37:34;;;;;;;3.65;3.35;;;;;;;16.02;94.42;102528.50;5062691;28;20166;-62
2022/08/10 03:39:59;;;;;;;4.03;3.65;;;;;;;16.00;95.06;102520.59;5061912;28;20127;-61
2022/08/10 03:42:27;;;;;;;6.53;3.90;;;;;;;15.96;95.28;102523.88;5062001;28;20029;-62
2022/08/10 03:44:54;;;;;;;4.00;3.60;;;;;;;15.94;95.02;102529.06;5063315;28;20426;-62
2022/08/10 03:47:22;;;;;;;4.00;3.70;;;;;;;15.93;94.92;102529.00;5059974;28;20037;-62
2022/08/10 03:49:49;;;;;;;4.15;3.80;;;;;;;15.90;95.57;102534.13;5069006;28;20123;-62
2022/08/10 03:52:16;;;;;;;4.75;4.35;;;;;;;15.88;96.04;102538.41;5064345;28;20039;-62
2022/08/10 03:54:42;;;;;;;4.07;3.60;;;;;;;15.82;96.50;102534.75;5063776;28;20028;-61
2022/08/10 03:57:08;;;;;;;5.82;3.72;;;;;;;15.79;96.55;102531.13;5061158;28;20028;-62
2022/08/10 03:59:35;;;;;;;4.25;3.85;;;;;;;15.76;96.67;102525.78;5066531;28;20494;-62
2022/08/10 04:02:01;;;;;;;4.78;4.38;;;;;;;15.71;97.10;102534.34;5068115;28;20031;-62
2022/08/10 04:04:27;;;;;;;5.03;4.50;;;;;;;15.69;97.39;102530.78;5065877;28;20491;-62
2022/08/10 04:06:55;;;;;;;4.78;4.15;;;;;;;15.67;97.63;102539.41;5067128;28;20114;-62
2022/08/10 04:09:22;;;;;;;4.75;4.35;;;;;;;15.63;98.25;102534.88;5065897;28;20028;-62
2022/08/10 04:11:47;;;;;;;4.93;4.53;;;;;;;15.60;98.23;102533.94;5067479;28;20101;-62
2022/08/10 04:14:13;;;;;;;4.40;4.10;;;;;;;15.58;98.55;102542.53;5068444;28;20069;-62
2022/08/10 04:16:38;;;;;;;4.85;4.45;;;;;;;15.54;98.84;102538.03;5060337;28;20032;-62
2022/08/10 04:19:05;;;;;;;5.65;4.80;;;;;;;15.53;98.97;102539.75;5064686;28;20432;-62
2022/08/10 04:21:36;;;;;;;5.25;4.85;;;;;;;15.51;99.03;102536.19;5062490;28;20028;-62
2022/08/10 04:24:05;;;;;;;4.78;4.32;;;;;;;15.50;98.55;102537.03;5066019;28;20017;-62
2022/08/10 04:26:31;;;;;;;4.82;4.45;;;;;;;15.50;99.06;102544.88;5064224;28;20534;-63
2022/08/10 04:28:56;;;;;;;5.38;4.85;;;;;;;15.46;99.42;102542.97;5066571;28;20062;-62
2022/08/10 04:31:25;;;;;;;5.15;4.65;;;;;;;15.45;99.76;102543.81;5065172;28;20017;-62
2022/08/10 04:33:53;;;;;;;6.25;5.10;;;;;;;15.47;99.91;102544.75;5063997;28;20028;-63
2022/08/10 04:36:20;;;;;;;5.85;4.47;;;;;;;15.45;100.00;102542.06;5063419;28;20030;-63
2022/08/10 04:38:48;;;;;;;5.13;4.65;;;;;;;15.46;99.73;102537.72;5061821;28;20029;-63
2022/08/10 04:41:14;;;;;;;6.43;4.32;;;;;;;15.47;100.00;102544.75;5063866;28;20481;-62
2022/08/10 04:43:39;;;;;;;8.18;5.40;;;;;;;15.49;100.00;102543.97;5061880;28;20023;-62
2022/08/10 04:46:04;;;;;;;5.00;4.18;;;;;;;15.47;100.00;102547.38;5060730;28;20036;-62
2022/08/10 04:48:30;;;;;;;8.82;5.00;;;;;;;15.49;100.00;102543.97;5063329;28;20032;-62
2022/08/10 04:50:55;;;;;;;5.38;4.63;;;;;;;15.50;100.00;102544.88;5058561;28;20058;-62
2022/08/10 04:53:21;;;;;;;7.00;4.97;;;;;;;15.52;100.00;102537.97;5063273;28;20020;-62
2022/08/10 04:55:46;;;;;;;5.25;4.75;;;;;;;15.51;100.00;102530.97;5059440;28;20025;-62
2022/08/10 04:58:11;;;;;;;4.88;4.35;;;;;;;15.51;100.00;102528.34;5061714;28;20017;-63
2022/08/10 05:00:37;;;;;;;6.70;4.78;;;;;;;15.53;100.00;102533.63;5068583;28;20034;-62
2022/08/10 05:03:02;;;;;;;5.05;4.32;;;;;;;15.54;100.00;102536.28;5066985;28;20055;-62
2022/08/10 05:05:27;;;;;;;5.88;5.32;;;;;;;15.56;100.00;102528.53;5066986;28;20035;-62
2022/08/10 05:07:53;;;;;;;6.70;5.18;;;;;;;15.58;100.00;102529.47;5066874;28;20036;-62
2022/08/10 05:10:18;;;;;;;4.57;4.18;;;;;;;15.60;100.00;102538.25;5067859;28;20246;-62
2022/08/10 05:12:43;;;;;;;5.55;5.03;;;;;;;15.64;100.00;102529.72;5055940;28;20027;-62
2022/08/10 05:15:14;;;;;;;5.18;4.60;;;;;;;15.69;100.00;102537.72;5060781;28;20475;-62
2022/08/10 05:17:40;;;;;;;5.27;4.73;;;;;;;15.72;100.00;102532.63;5066375;28;20078;-62
2022/08/10 05:20:08;;;;;;;6.05;5.43;;;;;;;15.75;100.00;102534.44;5064206;28;20029;-61
2022/08/10 05:22:37;;;;;;;5.18;4.78;;;;;;;15.78;100.00;102525.00;5062346;28;20071;-62
2022/08/10 05:25:05;;;;;;;5.80;5.30;;;;;;;15.83;100.00;102528.66;5066540;28;20031;-62
2022/08/10 05:27:30;;;;;;;5.57;5.10;;;;;;;15.90;100.00;102528.91;5064880;28;20111;-62
2022/08/10 05:29:55;;;;;;;5.97;5.47;;;;;;;15.97;99.52;102530.91;5064723;28;20107;-62
2022/08/10 05:32:21;;;;;;;6.00;5.40;;;;;;;16.03;99.14;102541.63;5065986;28;20047;-61
2022/08/10 05:34:46;;;;;;;6.53;5.93;;;;;;;16.10;98.83;102541.84;5061355;28;20603;-62
2022/08/10 05:37:13;;;;;;;6.07;5.43;;;;;;;16.17;98.78;102549.09;5061736;28;20032;-62
2022/08/10 05:39:40;;;;;;;8.18;6.30;;;;;;;16.21;98.26;102540.50;5060389;28;20460;-61
2022/08/10 05:42:06;;;;;;;6.40;5.80;;;;;;;16.28;98.82;102547.72;5063835;28;20024;-62
2022/08/10 05:44:32;;;;;;;6.20;5.72;;;;;;;16.37;97.92;102549.78;5062672;28;20597;-62
2022/08/10 05:46:57;;;;;;;6.60;5.38;;;;;;;16.48;97.87;102549.28;5062834;28;20430;-62
2022/08/10 05:49:23;;;;;;;6.65;6.05;;;;;;;16.55;96.97;102548.63;5058998;28;20107;-62
2022/08/10 05:51:49;;;;;;;7.75;6.25;;;;;;;16.64;97.01;102537.63;5061966;28;20035;-62
2022/08/10 05:54:14;;;;;;;6.53;5.72;;;;;;;16.72;96.71;102543.97;5058954;28;20052;-61
2022/08/10 05:56:42;;;;;;;7.18;5.97;;;;;;;16.78;96.59;102541.56;5065284;28;20023;-62
2022/08/10 05:59:09;;;;;;;7.63;6.28;;;;;;;16.89;95.76;102552.38;5060046;28;20024;-61
2022/08/10 06:01:39;;;;;;;7.60;6.78;;;;;;;17.01;95.17;102551.00;5066812;28;20030;-61
2022/08/10 06:04:06;;;;;;;7.10;6.53;;;;;;;17.12;94.71;102554.00;5066564;28;20060;-62
2022/08/10 06:06:33;;;;;;;6.85;6.25;;;;;;;17.23;93.59;102560.50;5063088;28;20035;-62
2022/08/10 06:08:59;;;;;;;8.75;6.07;;;;;;;17.27;93.29;102544.00;5057896;28;20027;-62
2022/08/10 06:11:29;;;;;;;7.32;6.30;;;;;;;17.39;92.53;102547.88;5071473;28;20083;-61
2022/08/10 06:16:42;;;;;;;7.78;6.68;;;;;;;17.61;92.13;102551.16;5075037;28;20119;-62
2022/08/10 06:19:10;;;;;;;6.50;5.90;;;;;;;17.76;91.25;102548.97;5064899;28;20112;-61
2022/08/10 06:21:37;;;;;;;8.18;6.40;;;;;;;17.89;91.25;102554.56;5074255;28;20035;-61
2022/08/10 06:24:06;;;;;;;7.13;6.53;;;;;;;17.97;91.06;102557.41;5080426;28;20034;-61
2022/08/10 06:26:31;;;;;;;6.70;5.80;;;;;;;18.18;89.98;102556.25;5078800;28;20049;-62
2022/08/10 06:29:01;;;;;;;6.45;5.90;;;;;;;18.35;89.28;102551.44;5078343;28;20028;-62
2022/08/10 06:31:28;;;;;;;5.93;5.43;;;;;;;18.53;87.75;102552.81;5076071;28;20460;-62
2022/08/10 06:33:56;;;;;;;6.10;5.60;;;;;;;18.67;86.40;102553.16;5083495;28;20107;-61
2022/08/10 06:36:22;;;;;;;6.43;5.80;;;;;;;18.63;85.61;102549.56;5074974;28;20025;-61
2022/08/10 06:38:49;;;;;;;5.30;4.90;;;;;;;18.84;85.63;102553.56;5067787;28;20036;-62
2022/08/10 06:41:22;;;;;;;6.88;5.25;;;;;;;19.04;84.47;102550.53;5080222;28;20583;-62
2022/08/10 06:43:59;;;;;;;6.78;4.90;;;;;;;19.27;83.24;102547.59;5086625;28;20016;-61
2022/08/10 06:46:26;;;;;;;6.00;5.30;;;;;;;19.39;82.66;102542.59;5085916;28;20036;-62
2022/08/10 06:48:58;;;;;;;5.07;4.63;;;;;;;19.61;81.70;102543.06;5087187;28;20027;-62
2022/08/10 06:51:28;;;;;;;4.45;4.10;;;;;;;19.78;80.31;102534.66;5089572;28;20065;-62
2022/08/10 06:54:01;;;;;;;4.65;4.35;;;;;;;19.94;79.80;102541.09;5075286;28;20051;-62
2022/08/10 06:56:32;;;;;;;5.13;4.50;;;;;;;20.10;79.05;102542.31;5088066;28;20024;-61
2022/08/10 06:58:59;;;;;;;;;;;;;;;20.26;78.14;102542.59;5085272;28;20282;-62
2022/08/10 07:01:29;;;;;;;4.05;3.75;;;;;;;20.44;76.45;102538.53;5074044;28;20342;-63
2022/08/10 07:04:01;;;;;;;4.63;4.22;;;;;;;20.62;75.74;102549.38;5085289;28;20375;-62
2022/08/10 07:06:28;;;;;;;5.40;4.90;;;;;;;20.72;74.37;102546.91;5081303;28;20164;-62
2022/08/10 07:08:55;;;;;;;4.70;4.38;;;;;;;20.84;73.27;102551.50;5083429;28;20016;-62
2022/08/10 07:11:22;;;;;;;5.43;4.97;;;;;;;20.93;73.28;102563.91;5079950;28;20078;-62
2022/08/10 07:13:50;;;;;;;5.13;4.63;;;;;;;21.07;71.87;102556.25;5084598;28;20027;-61
2022/08/10 07:16:17;;;;;;;4.65;4.28;;;;;;;21.20;72.25;102555.59;5073160;28;20024;-62
2022/08/10 07:18:46;;;;;;;6.05;4.53;;;;;;;21.39;70.93;102554.97;5075043;28;20033;-62
2022/08/10 07:21:13;;;;;;;5.43;5.03;;;;;;;21.56;69.52;102553.44;5078706;28;20099;-62
2022/08/10 07:23:42;;;;;;;4.13;3.83;;;;;;;21.63;69.39;102558.78;5069206;28;20602;-62
2022/08/10 07:26:08;;;;;;;5.43;4.95;;;;;;;21.76;68.54;102550.16;5083546;28;20098;-62
2022/08/10 07:28:34;;;;;;;5.10;4.70;;;;;;;21.86;67.21;102560.88;5073546;28;20399;-62
2022/08/10 07:31:00;;;;;;;5.00;4.57;;;;;;;21.91;67.26;102562.66;5069142;28;20028;-62
2022/08/10 07:33:27;;;;;;;4.65;3.70;;;;;;;22.04;67.54;102566.34;5078391;28;20157;-62
2022/08/10 07:35:55;;;;;;;5.22;4.47;;;;;;;22.26;67.21;102571.84;5087950;28;20032;-62
2022/08/10 07:38:24;;;;;;;4.65;3.75;;;;;;;22.52;67.58;102563.28;5080428;28;20077;-62
2022/08/10 07:40:51;;;;;;;4.57;4.10;;;;;;;22.82;66.14;102565.31;5087265;28;20113;-62
2022/08/10 07:43:20;;;;;;;4.78;4.00;;;;;;;23.07;64.48;102562.84;5089696;28;20020;-62
2022/08/10 07:45:47;;;;;;;4.72;4.32;;;;;;;23.34;63.69;102559.50;5082154;28;20028;-62
2022/08/10 07:48:21;;;;;;;4.43;4.10;;;;;;;23.61;62.42;102557.00;5083634;28;20498;-62
2022/08/10 07:50:48;;;;;;;5.00;4.18;;;;;;;23.72;60.57;102555.31;5073064;28;20020;-62
2022/08/10 07:53:22;;;;;;;4.35;3.95;;;;;;;23.81;61.88;102550.91;5090217;28;20476;-62
2022/08/10 07:55:48;;;;;;;3.78;3.47;;;;;;;24.14;61.08;102556.28;5089185;28;20028;-62
2022/08/10 07:58:17;;;;;;;4.20;3.80;;;;;;;24.35;59.05;102555.47;5089788;28;20020;-62
2022/08/10 08:00:45;;;;;;;3.85;3.55;;;;;;;24.66;59.28;102558.09;5089401;28;20366;-62
2022/08/10 08:03:13;;;;;;;4.13;3.83;;;;;;;24.91;57.81;102566.06;5089085;28;20036;-62
2022/08/10 08:05:39;;;;;;;3.85;3.55;;;;;;;25.16;56.97;102566.06;5088993;28;20012;-62
2022/08/10 08:08:06;;;;;;;4.07;3.58;;;;;;;25.34;56.60;102564.22;5083177;28;20189;-62
2022/08/10 08:10:33;;;;;;;5.75;4.40;;;;;;;25.45;54.59;102560.66;5064218;28;20032;-61
2022/08/10 08:13:00;;;;;;;4.45;4.03;;;;;;;25.58;54.13;102558.84;5063134;28;20216;-62
2022/08/10 08:15:26;;;;;;;6.07;4.07;;;;;;;25.60;52.71;102565.88;5062884;28;20548;-62
2022/08/10 08:17:54;;;;;;;4.50;4.10;;;;;;;25.59;53.28;102566.78;5068877;28;20021;-62
2022/08/10 08:20:23;;;;;;;4.45;3.97;;;;;;;25.61;53.29;102562.34;5067428;28;20469;-62
2022/08/10 08:22:49;;;;;;;4.35;3.97;;;;;;;25.74;53.87;102560.53;5066206;28;20051;-61
2022/08/10 08:25:16;;;;;;;5.70;3.20;;;;;;;25.87;53.94;102558.72;5073943;28;20468;-62
2022/08/10 08:27:44;;;;;;;3.22;2.92;;;;;;;26.10;53.03;102551.50;5081425;28;20349;-62
2022/08/10 08:30:10;;;;;;;3.95;3.65;;;;;;;26.22;51.57;102563.81;5083167;28;20028;-62
2022/08/10 08:32:55;;;;;;;5.15;3.60;;;;;;;26.23;51.09;102557.59;5085580;28;20020;-62
2022/08/10 08:35:22;;;;;;;4.32;3.92;;;;;;;26.26;51.41;102560.25;5067312;28;20037;-62
2022/08/10 08:37:51;;;;;;;5.05;3.45;;;;;;;26.29;51.93;102552.25;5069389;28;20357;-62
2022/08/10 08:40:26;;;;;;;7.07;3.70;;;;;;;26.43;50.97;102556.59;5074090;28;20038;-62
2022/08/10 08:43:31;;;;;;;4.00;3.60;;;;;;;26.60;51.66;102553.81;5085864;28;20737;-62
2022/08/10 08:46:17;;;;;;;5.05;4.47;;;;;;;26.68;50.23;102551.09;5085981;28;20040;-62
2022/08/10 08:49:00;;;;;;;5.35;3.83;;;;;;;26.76;50.59;102559.88;5085966;28;20020;-62
2022/08/10 08:51:58;;;;;;;3.80;3.17;;;;;;;26.96;49.19;102550.81;5087047;28;20387;-62
2022/08/10 08:54:54;;;;;;;5.13;4.07;;;;;;;26.99;49.78;102550.78;5075700;28;20032;-62
2022/08/10 08:57:42;;;;;;;3.50;3.17;;;;;;;27.15;49.91;102554.16;5087472;28;20455;-62
2022/08/10 09:00:13;;;;;;;4.82;3.72;;;;;;;27.34;49.98;102552.16;5086682;28;20417;-62
2022/08/10 09:03:00;;;;;;;3.22;2.90;;;;;;;27.54;48.65;102548.38;5058500;28;20030;-62
2022/08/10 09:06:04;;;;;;;4.03;3.42;;;;;;;27.72;47.57;102549.09;5062890;28;20020;-62
2022/08/10 09:08:54;;;;;;;4.47;3.70;;;;;;;27.68;46.83;102550.00;5074090;28;20036;-62
2022/08/10 09:11:38;;;;;;;4.93;3.47;;;;;;;27.76;46.57;102537.47;5064644;28;20059;-62
2022/08/10 09:14:28;;;;;;;4.45;3.70;;;;;;;27.83;47.11;102537.41;5059441;28;20028;-62
2022/08/10 09:17:16;;;;;;;3.60;3.30;;;;;;;27.90;47.16;102533.75;5071218;28;20032;-63
2022/08/10 09:19:47;;;;;;;6.18;2.90;;;;;;;28.05;47.25;102533.50;5059998;28;20024;-62
2022/08/10 09:22:18;;;;;;;4.07;2.83;;;;;;;28.12;45.71;102538.72;5067143;28;20476;-62
2022/08/10 09:24:50;;;;;;;3.08;2.80;;;;;;;28.28;45.86;102534.91;5072223;28;20503;-62
2022/08/10 09:27:24;;;;;;;7.85;3.40;;;;;;;28.09;45.21;102531.66;5079633;28;20016;-62
2022/08/10 09:29:55;;;;;;;3.65;2.83;;;;;;;28.25;47.07;102531.41;5083551;28;20024;-63
2022/08/10 09:32:31;;;;;;;3.63;3.28;;;;;;;28.39;44.92;102521.44;5079180;28;20534;-62
2022/08/10 09:35:11;;;;;;;2.65;2.30;;;;;;;28.55;44.70;102517.63;5062899;28;20025;-62
2022/08/10 09:37:58;;;;;;;3.30;3.00;;;;;;;28.60;43.48;102514.00;5077987;28;20094;-62
2022/08/10 09:40:28;;;;;;;3.83;2.00;;;;;;;28.62;44.48;102520.16;5080569;28;20089;-63
2022/08/10 09:43:05;;;;;;;2.72;2.47;;;;;;;28.64;42.73;102504.13;5086874;28;20024;-62
2022/08/10 09:45:45;;;;;;;5.78;2.60;;;;;;;28.73;44.45;102509.28;5087146;28;20379;-62
2022/08/10 09:48:32;;;;;;;4.03;3.60;;;;;;;28.70;44.07;102516.47;5087328;28;20024;-62
2022/08/10 09:51:07;;;;;;;3.40;2.88;;;;;;;28.75;44.13;102507.47;5073836;28;20027;-62
2022/08/10 09:53:48;;;;;;;3.53;2.55;;;;;;;28.89;43.07;102509.00;5086892;28;20436;-62
2022/08/10 09:56:35;;;;;;;2.65;2.28;;;;;;;28.81;41.92;102508.25;5070399;28;20035;-62
2022/08/10 09:59:09;;;;;;;4.65;2.72;;;;;;;28.84;40.31;102500.19;5084782;28;20024;-62
2022/08/10 10:01:40;;;;;;;2.78;2.47;;;;;;;28.93;41.42;102493.81;5087322;28;20028;-62
2022/08/10 10:04:08;;;;;;;;;;;;;;;29.13;42.35;102496.09;5086469;28;20384;-62
2022/08/10 10:06:44;;;;;;;3.05;2.33;;;;;;;29.33;41.35;102497.47;5086852;28;20371;-63
2022/08/10 10:09:17;;;;;;;4.15;2.55;;;;;;;29.32;39.49;102493.06;5086404;28;20028;-62
2022/08/10 10:11:42;;;;;;;5.93;2.63;;;;;;;29.34;40.69;102489.41;5086450;28;20089;-62
2022/08/10 10:18:09;;;;;;;3.78;2.50;;;;;;;29.59;39.89;102477.34;5086667;28;20116;-63
2022/08/10 10:20:53;;;;;;;2.30;2.10;;;;;;;29.76;39.79;102478.72;5086597;28;20106;-63
2022/08/10 10:23:50;;;;;;;2.72;1.67;;;;;;;29.87;38.92;102482.03;5086645;28;20028;-62
2022/08/10 10:26:41;;;;;;;2.55;2.35;;;;;;;29.94;39.77;102472.97;5087868;28;20617;-63
2022/08/10 10:29:21;;;;;;;3.83;2.00;;;;;;;30.03;38.25;102466.50;5090924;28;20024;-62
2022/08/10 10:32:01;;;;;;;3.75;1.95;;;;;;;30.12;37.01;102470.75;5090280;28;20357;-62
2022/08/10 10:34:34;;;;;;;3.55;2.50;;;;;;;30.07;34.90;102464.63;5090610;28;20476;-62
2022/08/10 10:37:01;;;;;;;3.47;2.10;;;;;;;30.11;36.18;102468.09;5090754;28;20032;-62
2022/08/10 10:39:28;;;;;;;3.53;2.42;;;;;;;30.16;35.63;102467.06;5090229;28;20020;-62
2022/08/10 10:42:01;;;;;;;4.13;2.05;;;;;;;30.15;35.53;102459.97;5088594;28;20039;-63
2022/08/10 10:44:26;;;;;;;3.67;2.20;;;;;;;30.18;36.19;102459.91;5090626;28;20077;-62
2022/08/10 10:47:27;;;;;;;4.22;2.25;;;;;;;30.27;36.15;102455.25;5090210;28;20020;-62
2022/08/10 10:50:04;;;;;;;3.08;2.00;;;;;;;30.32;35.95;102450.66;5065832;28;20044;-62
2022/08/10 10:52:48;;;;;;;2.63;2.00;;;;;;;30.35;35.67;102450.56;5075326;28;20429;-62
2022/08/10 10:55:52;;;;;;;3.13;2.33;;;;;;;30.31;35.60;102448.91;5090006;28;20081;-62
2022/08/10 10:58:23;;;;;;;4.28;2.63;;;;;;;30.30;33.74;102442.69;5058749;28;20039;-63
2022/08/10 11:01:02;;;;;;;3.75;2.20;;;;;;;30.25;34.74;102449.06;5089898;28;20054;-62
2022/08/10 11:03:46;;;;;;;3.13;2.13;;;;;;;30.23;34.02;102434.88;5089835;28;20028;-62
2022/08/10 11:06:26;;;;;;;2.30;1.80;;;;;;;30.24;35.45;102432.16;5073303;28;20031;-63
2022/08/10 11:09:09;;;;;;;2.72;1.83;;;;;;;30.34;34.64;102432.78;5090037;28;20036;-63
2022/08/10 11:11:39;;;;;;;4.35;2.00;;;;;;;30.44;34.77;102428.94;5090463;28;20110;-63
2022/08/10 11:14:31;;;;;;;4.23;2.17;;;;;;;30.37;34.29;102424.69;5089994;28;20406;-63
2022/08/10 11:17:04;;;;;;;2.00;1.77;;;;;;;30.49;34.77;102419.94;5089791;28;20313;-63
2022/08/10 11:19:38;;;;;;;2.67;2.47;;;;;;;30.61;34.68;102419.56;5089782;28;20460;-63
2022/08/10 11:22:46;;;;;;;4.03;1.92;;;;;;;30.70;34.61;102421.09;5089834;28;20030;-62
2022/08/10 11:25:43;;;;;;;5.07;2.10;;;;;;;30.73;33.13;102417.44;5070234;28;20071;-63
2022/08/10 11:28:21;;;;;;;4.03;1.83;;;;;;;30.66;32.88;102406.06;5083719;28;20113;-62
2022/08/10 11:31:03;;;;;;;2.40;2.10;;;;;;;30.74;34.14;102412.09;5070514;28;20028;-61
2022/08/10 11:34:01;;;;;;;4.30;2.00;;;;;;;30.87;33.67;102409.06;5090038;28;20471;-62
2022/08/10 11:36:50;;;;;;;3.88;2.13;;;;;;;30.79;33.16;102411.94;5089047;28;20099;-62
2022/08/10 11:39:38;;;;;;;2.78;2.08;;;;;;;30.84;34.50;102414.50;5089136;28;20027;-62
2022/08/10 11:42:22;;;;;;;5.78;2.35;;;;;;;30.81;33.22;102410.09;5089190;28;20042;-63
2022/08/10 11:44:58;;;;;;;3.15;2.10;;;;;;;30.85;33.26;102410.91;5078390;28;20107;-62
2022/08/10 11:47:33;;;;;;;4.47;2.70;;;;;;;30.88;33.38;102405.47;5088714;28;20020;-63
2022/08/10 11:50:16;;;;;;;5.80;2.22;;;;;;;30.95;33.72;102401.69;5087464;28;20478;-62
2022/08/10 11:52:54;;;;;;;2.42;2.20;;;;;;;31.09;34.20;102395.03;5088958;28;20027;-63